Redstone Army Air Field
KHUA : now visible

Airfield :











YOU CAN JOIN US ON...

 
LOGIN :

Register | Disclaimer

   EN    FR    IT 

 









Legend :    VFR   Marginal VFR   IFR   Intensive IFR   Very Intensive IFR
Visi :
Ceiling :
>= 8 km
>= 3000ft
5 to 8 km
1000 to 3000 ft
1500m to 5 km
500 to 1000 ft
800 to 1500m
200 to 500 ft
< 800m
< 200 ft
Symbols :   Thunderstorms  Fog  Heavy snow  Heavy precipitations  Wind > 20 kt






- Airport Elevation : 684 ft


KHUA - Redstone Army Air Field

EXPIRED METARs :
  • 161959Z 35005KT 7SM SCT065 25/21 A2997 RMK $

TAF TAF KHUA
Valid from the 16 at 20:00 until the 18 at 02:00 UTC


162000Z 1620/1802 VRB06KT 9999 FEW035 QNH2994INS
TEMPO 1623/1702 8000 -SHRA SCT020 TX28/1621Z TN20/1711Z LAST NO AMDS AFT 1700 NEXT 1712
KZME FIR / North America



MET'MAP, your aeronautical weather chart ! - Copyright ORBIFLY December 2007 - Disclaimer

ORBIFLY MET'MAP TEAM :

Programming & Development : Alexandra Zaïnal
Original concept : Baudouin d'Aumeries
Technical & hardware support : Manuel Goepfert
Assistance : Marc-Olivier Méhu




SOURCES & CREDITS :

   NOAA       Earth
Advisory